createdAt,value
2019-06-07T00:00:39.702Z,99.90
2019-06-07T00:04:38.161Z,99.90
2019-06-07T00:08:44.502Z,99.90
2019-06-07T00:12:50.840Z,99.90
2019-06-07T00:16:57.514Z,99.90
2019-06-07T00:21:03.927Z,99.90
2019-06-07T00:25:13.364Z,99.90
2019-06-07T00:29:21.496Z,99.90
2019-06-07T00:33:27.042Z,99.90
2019-06-07T00:37:51.391Z,99.90
2019-06-07T00:41:57.921Z,99.90
2019-06-07T00:46:04.280Z,99.90
2019-06-07T00:50:13.407Z,99.90
2019-06-07T00:54:21.981Z,99.90
2019-06-07T00:58:29.572Z,99.90
2019-06-07T01:02:35.950Z,99.90
2019-06-07T01:06:42.250Z,99.90
2019-06-07T01:10:53.815Z,99.90
2019-06-07T01:14:56.387Z,99.90
2019-06-07T01:19:02.621Z,99.90
2019-06-07T01:23:51.982Z,99.90
2019-06-07T01:27:18.992Z,99.90
2019-06-07T01:31:28.535Z,99.90
2019-06-07T01:35:33.318Z,99.90
2019-06-07T01:39:39.630Z,99.90
2019-06-07T01:43:46.974Z,99.90
2019-06-07T01:47:53.471Z,99.90
2019-06-07T01:52:00.015Z,99.90
2019-06-07T01:56:06.407Z,99.90
2019-06-07T02:00:14.507Z,99.90
2019-06-07T02:04:23.318Z,99.90
2019-06-07T02:08:34.090Z,99.90
2019-06-07T02:12:43.082Z,99.90
2019-06-07T02:16:44.890Z,99.90
2019-06-07T02:20:51.227Z,99.90
2019-06-07T02:25:34.437Z,99.90
2019-06-07T02:29:05.594Z,99.90
2019-06-07T02:33:11.874Z,99.90
2019-06-07T02:37:18.133Z,99.90
2019-06-07T02:41:27.623Z,99.90
2019-06-07T02:45:37.777Z,99.90
2019-06-07T02:49:42.247Z,99.90
2019-06-07T02:53:48.528Z,99.90
2019-06-07T02:57:55.030Z,99.90
2019-06-07T03:02:01.965Z,99.90
2019-06-07T03:06:11.182Z,99.90
2019-06-07T03:10:17.530Z,99.90
2019-06-07T03:14:26.062Z,99.90
2019-06-07T03:18:50.426Z,99.90
2019-06-07T03:22:59.960Z,99.90
2019-06-07T03:31:15.241Z,99.90
2019-06-07T03:35:21.877Z,99.90
2019-06-07T03:39:29.478Z,99.90
2019-06-07T03:43:40.397Z,99.90
2019-06-07T03:47:44.046Z,99.90
2019-06-07T03:51:50.386Z,99.90
2019-06-07T03:55:56.734Z,99.90
2019-06-07T04:00:03.978Z,99.90
2019-06-07T04:04:11.155Z,99.90
2019-06-07T04:08:17.425Z,99.90
2019-06-07T04:12:25.750Z,99.90
2019-06-07T04:16:34.941Z,99.90
2019-06-07T04:20:41.490Z,99.90
2019-06-07T04:24:48.045Z,99.90
2019-06-07T04:29:31.629Z,99.90
2019-06-07T04:33:02.335Z,99.90
2019-06-07T04:37:09.898Z,99.90
2019-06-07T04:41:38.269Z,99.50
2019-06-07T04:45:51.843Z,97.40
2019-06-07T04:50:04.220Z,98.60
2019-06-07T04:54:31.047Z,99.90
2019-06-07T04:58:41.139Z,99.90
2019-06-07T05:02:46.610Z,99.90
2019-06-07T05:06:55.721Z,99.90
2019-06-07T05:11:02.879Z,99.90
2019-06-07T05:15:25.437Z,99.90
2019-06-07T05:19:49.850Z,99.90
2019-06-07T05:24:06.619Z,99.90
2019-06-07T05:28:04.069Z,99.90
2019-06-07T05:32:11.193Z,99.90
2019-06-07T05:36:37.568Z,99.90
2019-06-07T05:40:48.722Z,99.90
2019-06-07T05:44:52.419Z,99.90
2019-06-07T05:48:58.627Z,99.90
2019-06-07T05:53:05.660Z,99.60
2019-06-07T05:57:12.343Z,99.60
2019-06-07T06:05:34.491Z,99.20
2019-06-07T06:09:50.262Z,98.80
2019-06-07T06:14:06.581Z,98.70
2019-06-07T06:18:04.539Z,97.90
2019-06-07T06:22:10.789Z,96.30
2019-06-07T06:26:17.094Z,95.20
2019-06-07T06:30:24.049Z,93.50
2019-06-07T06:34:30.414Z,93.40
2019-06-07T06:38:38.268Z,92.90
2019-06-07T06:42:48.152Z,93.10
2019-06-07T06:46:58.058Z,94.30
2019-06-07T06:51:03.966Z,96.20
2019-06-07T06:55:11.838Z,96.10
2019-06-07T07:04:00.287Z,99.30
2019-06-07T07:07:53.004Z,99.90
2019-06-07T07:12:11.326Z,99.90
2019-06-07T07:16:07.416Z,99.90
2019-06-07T07:20:13.865Z,99.90
2019-06-07T07:24:22.233Z,99.90
2019-06-07T07:28:28.455Z,99.90
2019-06-07T07:32:34.893Z,99.90
2019-06-07T07:36:41.306Z,99.90
2019-06-07T07:41:15.122Z,99.90
2019-06-07T07:45:08.569Z,99.90
2019-06-07T07:49:15.122Z,99.90
2019-06-07T07:53:47.958Z,99.90
2019-06-07T07:57:38.634Z,99.90
2019-06-07T08:01:46.111Z,99.90
2019-06-07T08:05:56.953Z,99.90
2019-06-07T08:10:07.850Z,99.90
2019-06-07T08:14:31.058Z,99.90
2019-06-07T08:18:37.402Z,99.90
2019-06-07T08:22:45.853Z,99.90
2019-06-07T08:27:12.984Z,99.90
2019-06-07T08:31:06.714Z,99.90
2019-06-07T08:39:35.149Z,99.90
2019-06-07T08:44:00.580Z,97.90
2019-06-07T08:48:26.622Z,97.60
2019-06-07T08:52:14.172Z,94.80
2019-06-07T08:56:26.318Z,86.20
2019-06-07T09:00:51.433Z,77.30
2019-06-07T09:05:03.228Z,68.60
2019-06-07T09:09:08.602Z,69.20
2019-06-07T09:13:26.918Z,75.30
2019-06-07T09:17:34.206Z,69.80
2019-06-07T09:21:44.563Z,65.70
2019-06-07T09:26:02.568Z,59.70
2019-06-07T09:30:04.723Z,58.50
2019-06-07T09:34:13.747Z,57.80
2019-06-07T09:38:33.716Z,56.80
2019-06-07T09:42:45.766Z,56.40
2019-06-07T09:47:12.901Z,59.00
2019-06-07T09:51:06.061Z,61.60
2019-06-07T09:55:22.940Z,56.10
2019-06-07T09:59:31.624Z,49.30
2019-06-07T10:03:38.824Z,49.00
2019-06-07T10:08:00.024Z,52.20
2019-06-07T10:11:53.554Z,52.10
2019-06-07T10:16:00.826Z,53.40
2019-06-07T10:20:25.344Z,53.30
2019-06-07T10:24:50.093Z,52.80
2019-06-07T10:29:08.355Z,55.60
2019-06-07T10:33:14.723Z,58.10
2019-06-07T10:37:28.574Z,59.40
2019-06-07T10:41:34.825Z,59.70
2019-06-07T10:45:42.492Z,55.10
2019-06-07T10:49:48.737Z,53.90
2019-06-07T10:53:55.105Z,57.20
2019-06-07T10:58:02.729Z,59.80
2019-06-07T11:02:24.269Z,59.40
2019-06-07T11:06:30.638Z,59.50
2019-06-07T11:10:37.525Z,59.40
2019-06-07T11:14:43.781Z,61.80
2019-06-07T11:18:50.011Z,63.30
2019-06-07T11:22:56.329Z,63.10
2019-06-07T11:27:20.922Z,67.40
2019-06-07T11:31:27.314Z,68.80
2019-06-07T11:35:34.389Z,69.30
2019-06-07T11:39:40.897Z,72.20
2019-06-07T11:43:47.338Z,73.00
2019-06-07T11:47:53.774Z,70.80
2019-06-07T11:52:00.040Z,71.10
2019-06-07T11:56:07.755Z,72.80
2019-06-07T12:00:18.249Z,72.10
2019-06-07T12:04:34.366Z,71.40
2019-06-07T12:08:32.639Z,70.80
2019-06-07T12:12:38.915Z,73.60
2019-06-07T12:16:45.303Z,74.50
2019-06-07T12:20:51.934Z,75.30
2019-06-07T12:24:58.258Z,77.60
2019-06-07T12:29:04.808Z,78.40
2019-06-07T12:33:11.340Z,77.00
2019-06-07T12:37:20.636Z,80.80
2019-06-07T12:41:26.141Z,78.30
2019-06-07T12:45:44.533Z,77.10
2019-06-07T12:49:40.816Z,76.80
2019-06-07T12:53:47.547Z,78.00
2019-06-07T12:57:54.042Z,77.60
2019-06-07T13:02:05.265Z,78.00
2019-06-07T13:06:11.586Z,78.30
2019-06-07T13:10:20.066Z,78.20
2019-06-07T13:14:44.897Z,75.60
2019-06-07T13:18:54.766Z,74.00
2019-06-07T13:23:01.017Z,74.20
2019-06-07T13:27:07.342Z,73.80
2019-06-07T13:31:32.473Z,74.40
2019-06-07T13:35:53.881Z,74.00
2019-06-07T13:40:00.241Z,76.60
2019-06-07T13:44:06.612Z,76.20
2019-06-07T13:48:30.723Z,78.10
2019-06-07T13:52:55.066Z,77.50
2019-06-07T13:57:03.069Z,77.40
2019-06-07T14:01:09.784Z,78.80
2019-06-07T14:05:34.159Z,78.20
2019-06-07T14:09:43.659Z,79.80
2019-06-07T14:13:52.858Z,81.60
2019-06-07T14:18:03.128Z,82.70
2019-06-07T14:22:11.039Z,80.60
2019-06-07T14:26:35.486Z,79.70
2019-06-07T14:30:55.191Z,79.70
2019-06-07T14:35:02.592Z,79.80
2019-06-07T14:39:09.001Z,80.00
2019-06-07T14:43:34.240Z,79.90
2019-06-07T14:47:45.982Z,81.70
2019-06-07T14:51:52.306Z,82.40
2019-06-07T14:55:58.742Z,82.40
2019-06-07T15:00:13.954Z,83.00
2019-06-07T15:04:41.925Z,83.80
2019-06-07T15:08:53.899Z,84.20
2019-06-07T15:13:00.270Z,84.90
2019-06-07T15:17:06.613Z,84.70
2019-06-07T15:21:12.886Z,84.50
2019-06-07T15:25:19.206Z,83.50
2019-06-07T15:29:25.501Z,83.50
2019-06-07T15:33:31.893Z,84.90
2019-06-07T15:37:55.973Z,83.90
2019-06-07T15:42:02.226Z,85.30
2019-06-07T15:46:13.186Z,87.90
2019-06-07T15:50:38.335Z,87.80
2019-06-07T15:54:46.094Z,87.50
2019-06-07T15:58:52.355Z,88.00
2019-06-07T16:03:00.975Z,88.80
2019-06-07T16:07:07.461Z,90.20
2019-06-07T16:11:16.917Z,90.00
2019-06-07T16:15:28.694Z,90.40
2019-06-07T16:19:39.055Z,90.10
2019-06-07T16:23:44.139Z,89.70
2019-06-07T16:27:50.747Z,90.10
2019-06-07T16:31:57.022Z,90.80
2019-06-07T16:36:03.287Z,90.80
2019-06-07T16:40:11.650Z,91.00
2019-06-07T16:44:17.974Z,91.90
2019-06-07T16:48:24.410Z,91.90
2019-06-07T16:52:30.674Z,92.00
2019-06-07T16:56:44.432Z,91.90
2019-06-07T17:00:48.567Z,92.40
2019-06-07T17:04:55.991Z,92.60
2019-06-07T17:09:07.218Z,92.80
2019-06-07T17:13:14.070Z,92.60
2019-06-07T17:17:20.338Z,93.10
2019-06-07T17:21:26.671Z,93.40
2019-06-07T17:25:33.496Z,93.60
2019-06-07T17:29:43.648Z,93.80
2019-06-07T17:33:54.991Z,93.80
2019-06-07T17:38:01.245Z,94.60
2019-06-07T17:42:07.513Z,94.70
2019-06-07T17:46:13.774Z,95.00
2019-06-07T17:50:21.571Z,95.20
2019-06-07T17:54:27.823Z,95.40
2019-06-07T17:58:34.223Z,95.80
2019-06-07T18:02:40.626Z,96.30
2019-06-07T18:06:47.728Z,96.70
2019-06-07T18:10:54.722Z,97.20
2019-06-07T18:15:22.698Z,97.50
2019-06-07T18:19:33.137Z,98.00
2019-06-07T18:23:57.203Z,98.30
2019-06-07T18:28:22.650Z,98.80
2019-06-07T18:32:29.440Z,99.00
2019-06-07T18:36:35.748Z,99.50
2019-06-07T18:40:42.538Z,99.80
2019-06-07T18:45:07.922Z,99.90
2019-06-07T18:49:14.476Z,99.90
2019-06-07T18:53:23.316Z,99.90
2019-06-07T18:57:32.395Z,99.90
2019-06-07T19:01:38.734Z,99.90
2019-06-07T19:06:03.409Z,99.90
2019-06-07T19:10:11.653Z,99.90
2019-06-07T19:14:17.902Z,99.90
2019-06-07T19:18:24.229Z,99.90
2019-06-07T19:22:32.290Z,99.90
2019-06-07T19:26:39.687Z,99.90
2019-06-07T19:30:45.921Z,99.90
2019-06-07T19:34:53.254Z,99.90
2019-06-07T19:39:00.082Z,99.90
2019-06-07T19:43:06.783Z,99.90
2019-06-07T19:47:13.022Z,99.90
2019-06-07T19:51:20.423Z,99.90
2019-06-07T19:55:27.070Z,99.90
2019-06-07T19:59:33.963Z,99.90
2019-06-07T20:03:43.036Z,99.90
2019-06-07T20:07:54.332Z,99.90
2019-06-07T20:12:02.883Z,99.90
2019-06-07T20:16:21.101Z,99.90
2019-06-07T20:20:29.972Z,99.90
2019-06-07T20:24:38.026Z,99.90
2019-06-07T20:28:44.126Z,99.90
2019-06-07T20:32:51.514Z,99.90
2019-06-07T20:36:57.900Z,99.90
2019-06-07T20:41:05.397Z,99.90
2019-06-07T20:45:12.071Z,99.90
2019-06-07T20:49:20.003Z,99.90
2019-06-07T20:53:26.280Z,99.90
2019-06-07T20:57:32.566Z,99.90
2019-06-07T21:01:54.379Z,99.90
2019-06-07T21:06:03.451Z,99.90
2019-06-07T21:10:11.332Z,99.90
2019-06-07T21:14:21.450Z,99.90
2019-06-07T21:18:27.915Z,99.90
2019-06-07T21:22:34.208Z,99.90
2019-06-07T21:26:40.477Z,99.90
2019-06-07T21:30:52.661Z,99.90
2019-06-07T21:35:17.895Z,99.90
2019-06-07T21:39:42.387Z,99.90
2019-06-07T21:43:48.637Z,99.90
2019-06-07T21:47:54.884Z,99.90
2019-06-07T21:52:02.487Z,99.90
2019-06-07T21:56:09.139Z,99.90
2019-06-07T22:00:54.949Z,99.90
2019-06-07T22:05:01.542Z,99.90
2019-06-07T22:09:09.761Z,99.90
2019-06-07T22:13:16.170Z,99.90
2019-06-07T22:17:22.418Z,99.90
2019-06-07T22:21:28.855Z,99.90
2019-06-07T22:25:35.149Z,99.90
2019-06-07T22:29:41.405Z,99.90
2019-06-07T22:33:47.635Z,99.90
2019-06-07T22:37:54.166Z,99.90
2019-06-07T22:42:00.418Z,99.90
2019-06-07T22:46:06.869Z,99.90
2019-06-07T22:50:14.447Z,99.90
2019-06-07T22:54:20.723Z,99.90
2019-06-07T22:58:27.461Z,99.90
2019-06-07T23:02:35.911Z,99.90
2019-06-07T23:06:42.238Z,99.90
2019-06-07T23:10:48.606Z,99.90
2019-06-07T23:14:54.867Z,99.90
2019-06-07T23:19:01.108Z,99.90
2019-06-07T23:23:07.513Z,99.90
2019-06-07T23:27:14.453Z,99.90
2019-06-07T23:31:20.919Z,99.90
2019-06-07T23:35:27.288Z,99.90
2019-06-07T23:39:33.498Z,99.90
2019-06-07T23:43:39.821Z,99.90
2019-06-07T23:47:46.153Z,99.90
2019-06-07T23:52:11.704Z,99.90
2019-06-07T23:56:36.270Z,99.90
